Time;durP1;ratioP1;P1;durP2;ratioP2;P2;SDS_P1;SDS_P2;PMS_P1;PMS_P2;Temp;Humidity;BMP_temperature;BMP_pressure;BME280_temperature;BME280_humidity;BME280_pressure;Samples;Min_cycle;Max_cycle;Signal;HPM_P1;HPM_P2
2021/07/16 00:01:43;;;;;;;13.10;8.32;;;;;;;;;;5007325;28;20408;-82
2021/07/16 00:04:08;;;;;;;10.55;7.82;;;;;;;;;;5025132;28;20026;-83
2021/07/16 00:06:34;;;;;;;10.95;7.40;;;;;;;;;;5009841;28;20493;-82
2021/07/16 00:08:59;;;;;;;9.90;7.65;;;;;;;;;;5005801;28;20031;-82
2021/07/16 00:11:26;;;;;;;8.68;7.15;;;;;;;;;;5007238;28;20073;-82
2021/07/16 00:13:52;;;;;;;8.45;6.90;;;;;;;;;;4987196;28;20050;-82
2021/07/16 00:16:17;;;;;;;8.48;7.57;;;;;;;;;;5006958;28;20120;-82
2021/07/16 00:18:43;;;;;;;9.95;6.97;;;;;;;;;;5007030;28;20386;-83
2021/07/16 00:21:09;;;;;;;9.65;7.38;;;;;;;;;;5021223;28;20104;-83
2021/07/16 00:23:34;;;;;;;10.45;7.07;;;;;;;;;;4974570;28;20129;-82
2021/07/16 00:25:59;;;;;;;8.38;7.13;;;;;;;;;;5007630;28;20046;-83
2021/07/16 00:28:25;;;;;;;8.50;6.80;;;;;;;;;;5010249;28;20030;-82
2021/07/16 00:30:51;;;;;;;8.13;7.30;;;;;;;;;;5010431;28;20149;-82
2021/07/16 00:33:16;;;;;;;7.70;5.95;;;;;;;;;;4990350;28;20038;-82
2021/07/16 00:35:42;;;;;;;9.05;6.95;;;;;;;;;;4990437;28;20408;-82
2021/07/16 00:38:08;;;;;;;7.65;6.30;;;;;;;;;;5029221;28;20033;-82
2021/07/16 00:40:33;;;;;;;6.15;5.55;;;;;;;;;;5025875;28;20065;-82
2021/07/16 00:42:59;;;;;;;7.75;6.95;;;;;;;;;;5019842;28;20038;-82
2021/07/16 00:45:24;;;;;;;7.68;6.43;;;;;;;;;;4990726;28;20035;-82
2021/07/16 00:47:50;;;;;;;7.45;6.47;;;;;;;;;;5006608;28;20035;-82
2021/07/16 00:50:21;;;;;;;7.05;6.00;;;;;;;;;;5017884;28;20065;-83
2021/07/16 00:52:47;;;;;;;7.35;6.00;;;;;;;;;;5010083;28;20026;-82
2021/07/16 00:55:14;;;;;;;8.73;7.20;;;;;;;;;;5015565;28;20038;-82
2021/07/16 00:57:39;;;;;;;6.18;5.57;;;;;;;;;;4990218;28;20033;-82
2021/07/16 01:00:06;;;;;;;7.20;5.93;;;;;;;;;;5006764;28;20039;-82
2021/07/16 01:02:32;;;;;;;7.35;6.47;;;;;;;;;;4992865;28;20508;-82
2021/07/16 01:04:57;;;;;;;7.95;6.63;;;;;;;;;;5009886;28;20053;-82
2021/07/16 01:07:23;;;;;;;9.20;6.22;;;;;;;;;;4993835;28;20040;-82
2021/07/16 01:09:50;;;;;;;6.93;6.22;;;;;;;;;;5010140;28;20038;-83
2021/07/16 01:12:16;;;;;;;8.45;6.43;;;;;;;;;;5011208;28;20106;-82
2021/07/16 01:14:42;;;;;;;6.50;5.80;;;;;;;;;;5010151;28;20034;-83
2021/07/16 01:17:08;;;;;;;7.85;6.50;;;;;;;;;;5009770;28;20045;-82
2021/07/16 01:19:57;;;;;;;7.50;5.50;;;;;;;;;;5010756;28;20035;-81
2021/07/16 01:22:25;;;;;;;7.40;5.72;;;;;;;;;;5029826;28;20081;-81
2021/07/16 01:24:51;;;;;;;7.82;6.22;;;;;;;;;;5029445;28;20038;-82
2021/07/16 01:27:18;;;;;;;7.30;5.68;;;;;;;;;;5013745;28;20061;-82
2021/07/16 01:29:43;;;;;;;6.78;5.72;;;;;;;;;;5012994;28;20527;-82
2021/07/16 01:32:09;;;;;;;5.85;5.07;;;;;;;;;;4996924;28;20038;-82
2021/07/16 01:34:34;;;;;;;5.70;4.90;;;;;;;;;;5012667;28;20034;-81
2021/07/16 01:37:00;;;;;;;6.20;4.72;;;;;;;;;;4989460;28;20480;-82
2021/07/16 01:39:25;;;;;;;5.30;4.80;;;;;;;;;;5049185;28;20846;-82
2021/07/16 01:41:51;;;;;;;6.93;5.18;;;;;;;;;;4994643;28;20046;-82
2021/07/16 01:44:16;;;;;;;5.40;4.47;;;;;;;;;;5009357;28;20069;-81
2021/07/16 01:46:42;;;;;;;5.68;5.03;;;;;;;;;;4992715;28;20116;-81
2021/07/16 01:49:08;;;;;;;5.10;4.60;;;;;;;;;;5010593;28;20022;-81
2021/07/16 01:51:33;;;;;;;6.20;4.60;;;;;;;;;;4996350;28;20124;-81
2021/07/16 01:53:59;;;;;;;6.15;5.55;;;;;;;;;;4979799;28;20037;-81
2021/07/16 01:56:24;;;;;;;5.80;5.20;;;;;;;;;;5012197;28;20092;-81
2021/07/16 01:58:51;;;;;;;5.20;4.70;;;;;;;;;;5012498;28;20492;-80
2021/07/16 02:01:16;;;;;;;7.18;5.38;;;;;;;;;;4996419;28;20512;-81
2021/07/16 02:03:44;;;;;;;6.05;4.70;;;;;;;;;;4995578;28;20042;-81
2021/07/16 02:06:09;;;;;;;5.53;4.45;;;;;;;;;;4979562;28;20034;-82
2021/07/16 02:08:35;;;;;;;5.25;4.63;;;;;;;;;;4995886;28;20033;-82
2021/07/16 02:11:00;;;;;;;6.53;4.70;;;;;;;;;;4995668;28;20046;-81
2021/07/16 02:13:26;;;;;;;5.38;4.68;;;;;;;;;;4979376;28;20045;-81
2021/07/16 02:15:52;;;;;;;6.03;5.13;;;;;;;;;;4979101;28;20042;-82
2021/07/16 02:18:17;;;;;;;5.65;4.90;;;;;;;;;;5011920;28;20030;-81
2021/07/16 02:20:44;;;;;;;6.75;4.97;;;;;;;;;;5011753;28;20044;-81
2021/07/16 02:23:16;;;;;;;5.18;4.60;;;;;;;;;;5011684;28;20036;-82
2021/07/16 02:25:42;;;;;;;5.75;4.53;;;;;;;;;;4995701;28;20050;-82
2021/07/16 02:28:11;;;;;;;5.45;4.68;;;;;;;;;;5028989;28;20034;-81
2021/07/16 02:30:36;;;;;;;5.45;4.85;;;;;;;;;;5027629;28;20112;-81
2021/07/16 02:33:02;;;;;;;6.10;4.78;;;;;;;;;;4995385;28;20038;-81
2021/07/16 02:35:27;;;;;;;6.53;5.00;;;;;;;;;;5007473;28;20054;-81
2021/07/16 02:37:53;;;;;;;6.22;5.15;;;;;;;;;;5022621;28;20037;-80
2021/07/16 02:40:19;;;;;;;7.68;5.10;;;;;;;;;;5011626;28;20412;-80
2021/07/16 02:42:44;;;;;;;6.07;4.93;;;;;;;;;;5028095;28;20042;-81
2021/07/16 02:45:13;;;;;;;5.72;4.57;;;;;;;;;;5027554;28;20070;-81
2021/07/16 02:47:38;;;;;;;5.63;4.25;;;;;;;;;;4995039;28;20124;-81
2021/07/16 02:50:06;;;;;;;6.32;5.25;;;;;;;;;;5011272;28;20120;-80
2021/07/16 02:52:31;;;;;;;7.32;4.82;;;;;;;;;;5007950;28;20038;-81
2021/07/16 02:54:57;;;;;;;5.57;5.00;;;;;;;;;;5015084;28;20045;-80
2021/07/16 02:57:22;;;;;;;5.57;4.88;;;;;;;;;;4991846;28;20386;-81
2021/07/16 02:59:48;;;;;;;6.03;5.43;;;;;;;;;;5010834;28;20057;-80
2021/07/16 03:02:13;;;;;;;6.07;5.38;;;;;;;;;;5027664;28;20037;-80
2021/07/16 03:04:39;;;;;;;6.03;5.05;;;;;;;;;;5002859;28;20034;-80
2021/07/16 03:07:05;;;;;;;6.38;4.60;;;;;;;;;;4991818;28;20096;-80
2021/07/16 03:09:34;;;;;;;6.07;5.00;;;;;;;;;;4997854;28;20045;-80
2021/07/16 03:12:03;;;;;;;6.07;4.85;;;;;;;;;;5010959;28;20034;-80
2021/07/16 03:14:28;;;;;;;6.28;5.35;;;;;;;;;;5011241;28;20045;-80
2021/07/16 03:16:54;;;;;;;6.18;4.97;;;;;;;;;;4994652;28;20038;-80
2021/07/16 03:19:20;;;;;;;5.68;5.07;;;;;;;;;;4994808;28;20046;-80
2021/07/16 03:21:45;;;;;;;6.25;4.80;;;;;;;;;;4994200;28;20516;-80
2021/07/16 03:24:10;;;;;;;5.57;4.60;;;;;;;;;;4993678;28;20042;-80
2021/07/16 03:26:37;;;;;;;6.05;5.45;;;;;;;;;;4994495;28;20392;-81
2021/07/16 03:29:03;;;;;;;6.60;5.25;;;;;;;;;;5004922;28;20092;-80
2021/07/16 03:31:28;;;;;;;6.32;5.50;;;;;;;;;;4994607;28;20037;-80
2021/07/16 03:33:54;;;;;;;8.77;5.80;;;;;;;;;;4977997;28;20440;-80
2021/07/16 03:36:19;;;;;;;5.85;5.20;;;;;;;;;;4995128;28;20121;-80
2021/07/16 03:38:47;;;;;;;6.85;5.47;;;;;;;;;;5026683;28;20034;-80
2021/07/16 03:41:13;;;;;;;7.50;5.50;;;;;;;;;;5010592;28;20112;-80
2021/07/16 03:43:38;;;;;;;7.13;5.47;;;;;;;;;;4994151;28;20133;-80
2021/07/16 03:46:04;;;;;;;6.10;5.25;;;;;;;;;;4978227;28;20042;-80
2021/07/16 03:48:32;;;;;;;6.05;4.70;;;;;;;;;;4990755;28;20042;-80
2021/07/16 03:50:57;;;;;;;6.60;5.18;;;;;;;;;;5009738;28;20080;-79
2021/07/16 03:53:23;;;;;;;6.25;4.97;;;;;;;;;;4994055;28;20061;-80
2021/07/16 03:55:48;;;;;;;5.75;5.00;;;;;;;;;;4998887;28;20046;-80
2021/07/16 03:58:13;;;;;;;6.97;5.38;;;;;;;;;;5007050;28;20043;-80
2021/07/16 04:00:39;;;;;;;6.63;5.05;;;;;;;;;;5007050;28;20061;-80
2021/07/16 04:03:05;;;;;;;7.25;5.38;;;;;;;;;;5007239;28;20068;-80
2021/07/16 04:05:31;;;;;;;5.80;4.90;;;;;;;;;;5007342;28;20066;-80
2021/07/16 04:10:28;;;;;;;9.73;5.53;;;;;;;;;;5012599;28;20034;-80
2021/07/16 04:12:56;;;;;;;7.35;5.80;;;;;;;;;;4990264;28;20034;-80
2021/07/16 04:15:22;;;;;;;6.82;5.18;;;;;;;;;;5003027;28;20564;-80
2021/07/16 04:17:47;;;;;;;7.22;5.10;;;;;;;;;;4974635;28;20061;-80
2021/07/16 04:20:13;;;;;;;7.57;6.20;;;;;;;;;;5003313;28;20120;-80
2021/07/16 04:22:39;;;;;;;6.82;5.45;;;;;;;;;;5010434;28;20030;-80
2021/07/16 04:25:05;;;;;;;6.55;5.72;;;;;;;;;;4990285;28;20038;-80
2021/07/16 04:27:31;;;;;;;7.28;5.47;;;;;;;;;;4990510;28;20046;-80
2021/07/16 04:29:56;;;;;;;5.72;5.22;;;;;;;;;;4998281;28;20512;-80
2021/07/16 04:32:22;;;;;;;5.93;5.30;;;;;;;;;;4990851;28;20057;-80
2021/07/16 04:34:47;;;;;;;7.22;5.63;;;;;;;;;;5023321;28;20038;-80
2021/07/16 04:37:13;;;;;;;7.20;5.15;;;;;;;;;;5031543;28;20038;-80
2021/07/16 04:39:38;;;;;;;6.03;5.05;;;;;;;;;;4993826;28;20030;-79
2021/07/16 04:42:04;;;;;;;5.65;4.60;;;;;;;;;;5010808;28;20113;-80
2021/07/16 04:44:31;;;;;;;6.88;5.57;;;;;;;;;;4997404;28;20038;-80
2021/07/16 04:46:56;;;;;;;7.32;5.05;;;;;;;;;;4993753;28;20030;-80
2021/07/16 04:49:23;;;;;;;7.32;4.95;;;;;;;;;;4993759;28;20045;-80
2021/07/16 04:51:48;;;;;;;6.03;4.80;;;;;;;;;;5009975;28;20042;-80
2021/07/16 04:54:16;;;;;;;8.25;5.75;;;;;;;;;;5005249;28;20120;-80
2021/07/16 04:56:42;;;;;;;5.82;5.20;;;;;;;;;;5030126;28;20142;-80
2021/07/16 04:59:07;;;;;;;5.88;4.80;;;;;;;;;;5029869;28;20033;-79
2021/07/16 05:01:32;;;;;;;7.53;4.97;;;;;;;;;;5030149;28;20041;-79
2021/07/16 05:03:58;;;;;;;6.85;5.53;;;;;;;;;;5030248;28;20054;-80
2021/07/16 05:06:23;;;;;;;7.28;5.47;;;;;;;;;;5013589;28;20065;-80
2021/07/16 05:08:49;;;;;;;7.93;5.88;;;;;;;;;;5029590;28;20041;-80
2021/07/16 05:11:15;;;;;;;7.57;5.78;;;;;;;;;;5006490;28;20033;-80
2021/07/16 05:13:41;;;;;;;7.15;5.50;;;;;;;;;;5012782;28;20034;-80
2021/07/16 05:16:08;;;;;;;6.55;5.55;;;;;;;;;;4997208;28;20040;-80
2021/07/16 05:18:34;;;;;;;8.23;5.80;;;;;;;;;;4980908;28;20022;-80
2021/07/16 05:20:59;;;;;;;6.45;5.82;;;;;;;;;;5009549;28;20041;-78
2021/07/16 05:23:25;;;;;;;7.10;5.22;;;;;;;;;;5010189;28;20039;-79
2021/07/16 05:25:51;;;;;;;7.18;5.53;;;;;;;;;;5012931;28;20132;-79
2021/07/16 05:28:16;;;;;;;7.68;5.55;;;;;;;;;;5001630;28;20046;-79
2021/07/16 05:30:42;;;;;;;7.35;5.63;;;;;;;;;;5010601;28;20045;-79
2021/07/16 05:33:07;;;;;;;6.10;5.32;;;;;;;;;;5013140;28;20451;-78
2021/07/16 05:35:33;;;;;;;7.32;5.63;;;;;;;;;;4996371;28;20046;-79
2021/07/16 05:37:59;;;;;;;8.82;5.28;;;;;;;;;;5012829;28;20053;-78
2021/07/16 05:40:25;;;;;;;6.88;5.60;;;;;;;;;;4994343;28;20042;-79
2021/07/16 05:42:52;;;;;;;6.55;5.03;;;;;;;;;;5009031;28;20489;-79
2021/07/16 05:45:18;;;;;;;7.65;5.80;;;;;;;;;;5017857;28;20049;-79
2021/07/16 05:47:44;;;;;;;8.05;5.85;;;;;;;;;;5011597;28;20030;-80
2021/07/16 05:50:12;;;;;;;9.35;6.18;;;;;;;;;;4995599;28;20133;-79
2021/07/16 05:52:41;;;;;;;7.90;5.53;;;;;;;;;;5028166;28;20135;-81
2021/07/16 05:55:07;;;;;;;6.50;5.50;;;;;;;;;;5024850;28;20042;-79
2021/07/16 05:57:38;;;;;;;7.60;5.97;;;;;;;;;;5020166;28;20057;-81
2021/07/16 06:00:04;;;;;;;7.57;6.25;;;;;;;;;;5002917;28;20034;-80
2021/07/16 06:02:30;;;;;;;6.53;5.63;;;;;;;;;;4996139;28;20493;-80
2021/07/16 06:04:55;;;;;;;10.45;6.50;;;;;;;;;;4995839;28;20042;-79
2021/07/16 06:07:21;;;;;;;7.20;4.90;;;;;;;;;;5011013;28;20061;-80
2021/07/16 06:09:47;;;;;;;6.88;5.50;;;;;;;;;;5028475;28;20041;-80
2021/07/16 06:12:12;;;;;;;8.00;6.47;;;;;;;;;;5011203;28;20053;-80
2021/07/16 06:14:38;;;;;;;8.07;6.40;;;;;;;;;;5013059;28;20042;-80
2021/07/16 06:17:03;;;;;;;8.55;5.80;;;;;;;;;;5043394;28;20112;-80
2021/07/16 06:19:29;;;;;;;8.38;6.57;;;;;;;;;;5015996;28;20039;-82
2021/07/16 06:21:54;;;;;;;6.80;5.63;;;;;;;;;;5026069;28;20468;-81
2021/07/16 06:24:20;;;;;;;6.40;5.80;;;;;;;;;;5028242;28;20038;-82
2021/07/16 06:26:45;;;;;;;8.10;6.53;;;;;;;;;;4995718;28;20056;-82
2021/07/16 06:29:11;;;;;;;8.40;6.43;;;;;;;;;;5004134;28;20034;-80
2021/07/16 06:31:36;;;;;;;8.80;6.38;;;;;;;;;;5001210;28;20042;-81
2021/07/16 06:34:02;;;;;;;9.10;6.65;;;;;;;;;;4990076;28;20038;-80
2021/07/16 06:36:27;;;;;;;9.40;6.60;;;;;;;;;;5024549;28;20115;-80
2021/07/16 06:38:53;;;;;;;11.63;7.32;;;;;;;;;;5003036;28;20489;-81
2021/07/16 06:41:18;;;;;;;9.52;6.78;;;;;;;;;;5007008;28;20386;-81
2021/07/16 06:43:44;;;;;;;11.75;6.85;;;;;;;;;;5014386;28;20042;-81
2021/07/16 06:46:10;;;;;;;8.68;6.75;;;;;;;;;;5004825;28;20089;-81
2021/07/16 06:48:37;;;;;;;11.85;7.25;;;;;;;;;;5025604;28;20064;-82
2021/07/16 06:51:02;;;;;;;8.95;6.28;;;;;;;;;;5008904;28;20050;-82
2021/07/16 06:53:28;;;;;;;9.90;6.88;;;;;;;;;;5007071;28;20069;-82
2021/07/16 06:55:53;;;;;;;9.90;6.32;;;;;;;;;;5043729;28;20058;-82
2021/07/16 06:58:19;;;;;;;11.15;7.22;;;;;;;;;;5023100;28;20052;-81
2021/07/16 07:00:44;;;;;;;8.90;6.45;;;;;;;;;;5030009;28;20041;-82
2021/07/16 07:03:10;;;;;;;11.80;6.72;;;;;;;;;;5009347;28;20041;-84
2021/07/16 07:05:36;;;;;;;11.05;7.70;;;;;;;;;;5027065;28;20107;-84
2021/07/16 07:08:02;;;;;;;10.00;7.35;;;;;;;;;;5011063;28;20453;-81
2021/07/16 07:10:27;;;;;;;12.02;6.90;;;;;;;;;;4991519;28;20042;-81
2021/07/16 07:12:53;;;;;;;15.77;8.80;;;;;;;;;;4991438;28;20413;-83
2021/07/16 07:15:18;;;;;;;14.85;8.13;;;;;;;;;;5019033;28;20099;-82
2021/07/16 07:17:44;;;;;;;17.27;8.13;;;;;;;;;;5027250;28;20041;-82
2021/07/16 07:20:10;;;;;;;15.07;8.57;;;;;;;;;;5027219;28;20044;-81
2021/07/16 07:22:35;;;;;;;13.30;8.85;;;;;;;;;;5006016;28;20109;-79
2021/07/16 07:25:01;;;;;;;12.57;8.23;;;;;;;;;;4999963;28;20814;-79
2021/07/16 07:27:26;;;;;;;14.00;7.57;;;;;;;;;;4988021;28;20076;-83
2021/07/16 07:29:52;;;;;;;12.68;7.75;;;;;;;;;;5019051;28;20038;-82
2021/07/16 07:32:19;;;;;;;14.38;8.20;;;;;;;;;;5005965;28;20034;-83
2021/07/16 07:34:47;;;;;;;12.30;7.25;;;;;;;;;;5007181;28;20069;-82
2021/07/16 07:37:12;;;;;;;11.65;6.88;;;;;;;;;;5029068;28;20127;-80
2021/07/16 07:39:41;;;;;;;12.27;6.65;;;;;;;;;;5030033;28;20060;-81
2021/07/16 07:42:06;;;;;;;11.05;6.85;;;;;;;;;;5045533;28;20071;-81
2021/07/16 07:44:32;;;;;;;8.95;5.95;;;;;;;;;;4994210;28;20448;-81
2021/07/16 07:46:57;;;;;;;8.07;5.95;;;;;;;;;;4993078;28;20044;-81
2021/07/16 07:49:24;;;;;;;8.68;5.90;;;;;;;;;;4994166;28;20041;-80
2021/07/16 07:51:49;;;;;;;8.90;6.05;;;;;;;;;;5026652;28;20030;-80
2021/07/16 07:54:15;;;;;;;8.18;6.13;;;;;;;;;;5010196;28;20038;-80
2021/07/16 07:56:40;;;;;;;10.23;6.10;;;;;;;;;;4977716;28;20034;-80
2021/07/16 07:59:06;;;;;;;11.82;7.03;;;;;;;;;;4992765;28;20065;-80
2021/07/16 08:01:32;;;;;;;7.68;6.00;;;;;;;;;;5022951;28;20034;-80
2021/07/16 08:03:59;;;;;;;10.13;6.68;;;;;;;;;;5007119;28;20428;-80
2021/07/16 08:06:25;;;;;;;10.27;6.53;;;;;;;;;;5010229;28;20052;-79
2021/07/16 08:08:51;;;;;;;9.95;6.35;;;;;;;;;;5010409;28;20492;-79
2021/07/16 08:11:16;;;;;;;10.77;6.88;;;;;;;;;;5012191;28;20116;-80
2021/07/16 08:13:42;;;;;;;9.05;6.40;;;;;;;;;;4981327;28;20052;-80
2021/07/16 08:16:08;;;;;;;10.75;6.68;;;;;;;;;;4982093;28;20025;-80
2021/07/16 08:18:36;;;;;;;10.00;6.95;;;;;;;;;;4981754;28;20080;-80
2021/07/16 08:21:01;;;;;;;14.70;7.45;;;;;;;;;;4977857;28;20305;-80
2021/07/16 08:23:27;;;;;;;10.15;6.30;;;;;;;;;;5010789;28;20050;-79
2021/07/16 08:25:52;;;;;;;11.35;6.40;;;;;;;;;;5010599;28;20052;-80
2021/07/16 08:28:18;;;;;;;9.18;6.68;;;;;;;;;;5010700;28;20038;-79
2021/07/16 08:30:43;;;;;;;12.18;6.85;;;;;;;;;;5011708;28;20075;-79
2021/07/16 08:33:09;;;;;;;8.90;6.05;;;;;;;;;;4994584;28;20042;-79
2021/07/16 08:35:34;;;;;;;11.98;6.68;;;;;;;;;;4997449;28;20034;-80
2021/07/16 08:38:00;;;;;;;11.65;7.15;;;;;;;;;;4998152;28;20033;-79
2021/07/16 08:40:25;;;;;;;11.70;7.55;;;;;;;;;;5000735;28;20034;-79
2021/07/16 08:42:55;;;;;;;9.88;6.25;;;;;;;;;;5033365;28;20144;-79
2021/07/16 08:45:24;;;;;;;13.65;8.05;;;;;;;;;;5001830;28;20053;-79
2021/07/16 08:47:50;;;;;;;11.85;6.95;;;;;;;;;;5013559;28;20037;-80
2021/07/16 08:50:16;;;;;;;10.88;6.70;;;;;;;;;;4981109;28;20034;-79
2021/07/16 08:52:44;;;;;;;10.70;6.50;;;;;;;;;;5009788;28;20070;-79
2021/07/16 08:55:10;;;;;;;9.75;6.30;;;;;;;;;;5010794;28;20038;-79
2021/07/16 08:57:36;;;;;;;9.70;6.53;;;;;;;;;;5010641;28;20069;-79
2021/07/16 09:00:05;;;;;;;12.45;5.90;;;;;;;;;;5001383;28;20041;-79
2021/07/16 09:02:32;;;;;;;11.85;6.85;;;;;;;;;;5010368;28;20528;-79
2021/07/16 09:04:59;;;;;;;10.63;6.93;;;;;;;;;;5010255;28;20037;-79
2021/07/16 09:07:25;;;;;;;12.38;7.13;;;;;;;;;;5004518;28;20504;-79
2021/07/16 09:09:50;;;;;;;10.88;6.63;;;;;;;;;;5029795;28;20037;-79
2021/07/16 09:12:15;;;;;;;9.30;6.05;;;;;;;;;;4997095;28;20045;-79
2021/07/16 09:14:41;;;;;;;13.35;7.05;;;;;;;;;;5013268;28;20037;-79
2021/07/16 09:17:15;;;;;;;11.80;6.55;;;;;;;;;;5024117;28;20401;-80
2021/07/16 09:19:47;;;;;;;11.77;6.70;;;;;;;;;;5009943;28;20046;-78
2021/07/16 09:22:15;;;;;;;11.45;6.20;;;;;;;;;;4992718;28;20420;-80
2021/07/16 09:24:59;;;;;;;11.35;5.75;;;;;;;;;;5010202;28;20039;-79
2021/07/16 09:27:31;;;;;;;10.18;6.18;;;;;;;;;;4999631;28;20069;-79
2021/07/16 09:30:17;;;;;;;11.30;6.40;;;;;;;;;;5009769;28;20409;-79
2021/07/16 09:32:47;;;;;;;10.02;5.80;;;;;;;;;;5026027;28;20277;-79
2021/07/16 09:35:17;;;;;;;12.10;7.05;;;;;;;;;;4993119;28;20042;-80
2021/07/16 09:37:50;;;;;;;13.15;7.53;;;;;;;;;;5017706;28;20038;-78
2021/07/16 09:40:26;;;;;;;11.43;6.28;;;;;;;;;;5004066;28;20088;-79
2021/07/16 09:43:03;;;;;;;10.40;6.85;;;;;;;;;;5012681;28;20052;-79
2021/07/16 09:45:28;;;;;;;11.15;7.38;;;;;;;;;;5009928;28;20062;-79
2021/07/16 09:47:54;;;;;;;8.80;6.15;;;;;;;;;;4994831;28;20077;-79
2021/07/16 09:50:22;;;;;;;11.50;6.72;;;;;;;;;;5012328;28;20048;-79
2021/07/16 09:52:48;;;;;;;9.90;7.07;;;;;;;;;;4995404;28;20057;-79
2021/07/16 09:55:18;;;;;;;10.98;7.30;;;;;;;;;;4995839;28;20041;-79
2021/07/16 09:57:55;;;;;;;11.10;7.55;;;;;;;;;;4979384;28;20034;-80
2021/07/16 10:00:26;;;;;;;13.10;7.00;;;;;;;;;;4978183;28;20042;-79
2021/07/16 10:02:53;;;;;;;11.65;7.20;;;;;;;;;;5008948;28;20072;-79
2021/07/16 10:05:18;;;;;;;10.77;7.55;;;;;;;;;;4992942;28;20493;-79
2021/07/16 10:07:44;;;;;;;14.30;7.90;;;;;;;;;;4976799;28;20122;-79
2021/07/16 10:10:14;;;;;;;12.75;7.72;;;;;;;;;;4983263;28;20039;-79
2021/07/16 10:12:41;;;;;;;13.07;7.47;;;;;;;;;;4992077;28;20051;-79
2021/07/16 10:15:12;;;;;;;12.07;7.47;;;;;;;;;;5005268;28;20101;-78
2021/07/16 10:17:37;;;;;;;9.70;6.57;;;;;;;;;;5024272;28;20484;-78
2021/07/16 10:20:06;;;;;;;10.63;7.43;;;;;;;;;;5004667;28;20034;-78
2021/07/16 10:22:33;;;;;;;10.57;7.20;;;;;;;;;;5039569;28;20862;-78
2021/07/16 10:24:58;;;;;;;12.35;7.18;;;;;;;;;;5039084;28;20032;-78
2021/07/16 10:27:24;;;;;;;13.27;7.35;;;;;;;;;;5048519;28;20050;-78
2021/07/16 10:29:49;;;;;;;14.30;7.95;;;;;;;;;;5004740;28;20074;-78
2021/07/16 10:32:39;;;;;;;9.75;6.93;;;;;;;;;;4995843;28;20038;-78
2021/07/16 10:35:18;;;;;;;10.93;7.20;;;;;;;;;;5010545;28;20026;-79
2021/07/16 10:37:44;;;;;;;11.45;7.15;;;;;;;;;;5028289;28;20496;-78
2021/07/16 10:40:34;;;;;;;9.55;7.28;;;;;;;;;;4975459;28;20031;-79
2021/07/16 10:42:59;;;;;;;11.77;7.43;;;;;;;;;;4994480;28;20124;-79
2021/07/16 10:45:32;;;;;;;12.27;7.32;;;;;;;;;;5033676;28;20498;-78
2021/07/16 10:48:18;;;;;;;11.25;7.20;;;;;;;;;;5027871;28;20041;-78
2021/07/16 10:50:46;;;;;;;10.38;7.05;;;;;;;;;;5011306;28;20066;-79
2021/07/16 10:53:34;;;;;;;12.43;6.25;;;;;;;;;;5011405;28;20042;-78
2021/07/16 10:56:02;;;;;;;12.90;5.78;;;;;;;;;;5011322;28;20069;-79
2021/07/16 10:58:29;;;;;;;11.02;7.35;;;;;;;;;;4994655;28;20050;-79
2021/07/16 11:01:04;;;;;;;13.18;6.57;;;;;;;;;;4991935;28;20026;-79
2021/07/16 11:03:51;;;;;;;10.02;6.10;;;;;;;;;;5024104;28;20046;-78
2021/07/16 11:06:20;;;;;;;9.38;6.22;;;;;;;;;;4992862;28;20038;-78
2021/07/16 11:08:45;;;;;;;10.43;6.20;;;;;;;;;;4996665;28;20045;-78
2021/07/16 11:11:12;;;;;;;8.07;5.57;;;;;;;;;;5021495;28;20412;-78
2021/07/16 11:13:47;;;;;;;8.13;6.22;;;;;;;;;;5003554;28;20041;-78
2021/07/16 11:16:15;;;;;;;9.43;6.78;;;;;;;;;;5027500;28;20420;-78
2021/07/16 11:19:03;;;;;;;8.52;6.47;;;;;;;;;;5004761;28;20100;-78
2021/07/16 11:21:47;;;;;;;9.30;6.20;;;;;;;;;;5027821;28;20045;-79
2021/07/16 11:24:15;;;;;;;10.60;5.72;;;;;;;;;;4991475;28;20034;-78
2021/07/16 11:26:54;;;;;;;9.85;6.28;;;;;;;;;;5039668;28;20506;-78
2021/07/16 11:29:27;;;;;;;10.02;7.03;;;;;;;;;;5010777;28;20042;-78
2021/07/16 11:32:11;;;;;;;9.63;6.05;;;;;;;;;;4975388;28;20513;-78
2021/07/16 11:34:45;;;;;;;8.45;5.38;;;;;;;;;;5005694;28;20040;-78
2021/07/16 11:37:11;;;;;;;13.20;6.00;;;;;;;;;;4998646;28;20520;-78
2021/07/16 11:39:37;;;;;;;9.63;6.25;;;;;;;;;;4997568;28;20037;-78
2021/07/16 11:42:04;;;;;;;7.45;5.93;;;;;;;;;;5046818;28;20091;-78
2021/07/16 11:44:38;;;;;;;8.50;6.00;;;;;;;;;;4997751;28;20041;-79
2021/07/16 11:47:19;;;;;;;10.77;6.55;;;;;;;;;;5046888;28;20042;-79
2021/07/16 11:49:46;;;;;;;11.80;6.80;;;;;;;;;;5009833;28;20038;-79
2021/07/16 11:52:15;;;;;;;12.45;7.57;;;;;;;;;;4991067;28;20069;-79
2021/07/16 11:54:40;;;;;;;10.57;6.03;;;;;;;;;;5001053;28;20040;-78
2021/07/16 11:57:06;;;;;;;8.70;5.85;;;;;;;;;;5005993;28;20112;-78
2021/07/16 11:59:32;;;;;;;10.25;6.15;;;;;;;;;;5013210;28;20196;-78
2021/07/16 12:02:03;;;;;;;8.23;5.55;;;;;;;;;;5013850;28;20047;-78
2021/07/16 12:04:29;;;;;;;11.80;5.28;;;;;;;;;;5030586;28;20033;-78
2021/07/16 12:06:54;;;;;;;12.73;6.80;;;;;;;;;;4994123;28;20113;-79
2021/07/16 12:09:36;;;;;;;9.48;5.53;;;;;;;;;;5010437;28;20053;-79
2021/07/16 12:12:03;;;;;;;9.82;5.50;;;;;;;;;;5027188;28;20034;-79
2021/07/16 12:14:29;;;;;;;10.38;6.07;;;;;;;;;;5026698;28;20037;-78
2021/07/16 12:16:54;;;;;;;11.90;5.22;;;;;;;;;;4977629;28;20041;-79
2021/07/16 12:19:20;;;;;;;10.50;5.85;;;;;;;;;;5010738;28;20030;-78
2021/07/16 12:21:45;;;;;;;9.70;5.45;;;;;;;;;;5026199;28;20115;-78
2021/07/16 12:24:10;;;;;;;11.07;5.38;;;;;;;;;;5041365;28;20041;-79
2021/07/16 12:26:36;;;;;;;9.68;5.82;;;;;;;;;;5023628;28;20057;-79
2021/07/16 12:29:06;;;;;;;15.45;6.60;;;;;;;;;;5024392;28;20034;-79
2021/07/16 12:31:32;;;;;;;12.57;5.72;;;;;;;;;;5025872;28;20107;-78
2021/07/16 12:33:58;;;;;;;14.93;6.20;;;;;;;;;;5005552;28;20400;-78
2021/07/16 12:36:32;;;;;;;15.20;6.57;;;;;;;;;;4983327;28;20069;-77
2021/07/16 12:38:58;;;;;;;19.75;6.80;;;;;;;;;;5003127;28;20042;-78
2021/07/16 12:41:23;;;;;;;14.48;6.85;;;;;;;;;;5008403;28;20504;-79
2021/07/16 12:43:49;;;;;;;14.88;6.95;;;;;;;;;;5026171;28;20091;-78
2021/07/16 12:46:26;;;;;;;14.10;6.63;;;;;;;;;;4993895;28;20038;-78
2021/07/16 12:48:51;;;;;;;15.68;7.63;;;;;;;;;;5008163;28;20034;-78
2021/07/16 12:51:17;;;;;;;16.17;7.47;;;;;;;;;;5026186;28;20534;-79
2021/07/16 12:53:54;;;;;;;17.95;8.15;;;;;;;;;;5022607;28;20042;-79
2021/07/16 12:56:24;;;;;;;14.98;7.60;;;;;;;;;;5006828;28;20114;-79
2021/07/16 12:58:53;;;;;;;13.93;7.10;;;;;;;;;;5017343;28;20479;-78
2021/07/16 13:01:28;;;;;;;14.82;6.95;;;;;;;;;;5013205;28;20029;-79
2021/07/16 13:03:54;;;;;;;12.85;7.53;;;;;;;;;;5047349;28;20108;-79
2021/07/16 13:06:23;;;;;;;19.30;7.88;;;;;;;;;;5016905;28;20411;-80
2021/07/16 13:09:09;;;;;;;18.42;8.48;;;;;;;;;;5016980;28;20038;-79
2021/07/16 13:11:34;;;;;;;15.15;6.97;;;;;;;;;;5016325;28;20439;-79
2021/07/16 13:14:00;;;;;;;16.98;7.15;;;;;;;;;;5049653;28;20038;-79
2021/07/16 13:16:26;;;;;;;15.50;7.70;;;;;;;;;;4981337;28;20046;-79
2021/07/16 13:18:55;;;;;;;16.00;7.88;;;;;;;;;;5046615;28;20042;-79
2021/07/16 13:21:21;;;;;;;12.30;7.97;;;;;;;;;;5029714;28;20436;-79
2021/07/16 13:23:46;;;;;;;12.50;7.18;;;;;;;;;;5029275;28;20041;-80
2021/07/16 13:26:12;;;;;;;14.15;7.55;;;;;;;;;;5029284;28;20527;-80
2021/07/16 13:28:39;;;;;;;17.48;7.32;;;;;;;;;;4979910;28;20038;-80
2021/07/16 13:31:04;;;;;;;13.30;6.88;;;;;;;;;;5029499;28;20045;-79
2021/07/16 13:33:30;;;;;;;16.77;8.20;;;;;;;;;;4996400;28;20034;-79
2021/07/16 13:35:55;;;;;;;17.90;7.43;;;;;;;;;;5007728;28;20117;-80
2021/07/16 13:38:21;;;;;;;16.42;7.68;;;;;;;;;;5049084;28;20035;-80
2021/07/16 13:40:47;;;;;;;18.15;7.47;;;;;;;;;;5032559;28;20483;-79
2021/07/16 13:43:13;;;;;;;16.33;6.65;;;;;;;;;;5049297;28;20431;-79
2021/07/16 13:45:38;;;;;;;14.77;7.15;;;;;;;;;;5049176;28;20041;-79
2021/07/16 13:48:04;;;;;;;14.32;7.28;;;;;;;;;;5048774;28;20049;-79
2021/07/16 13:50:30;;;;;;;11.88;7.18;;;;;;;;;;4995408;28;20038;-79
2021/07/16 13:52:55;;;;;;;20.75;8.38;;;;;;;;;;5017226;28;20108;-79
2021/07/16 13:55:20;;;;;;;15.52;6.93;;;;;;;;;;5035594;28;20501;-79
2021/07/16 13:57:48;;;;;;;15.40;7.63;;;;;;;;;;5000925;28;20034;-79
2021/07/16 14:00:14;;;;;;;17.63;6.72;;;;;;;;;;5012168;28;20122;-79
2021/07/16 14:02:45;;;;;;;13.40;7.22;;;;;;;;;;5043165;28;20029;-80
2021/07/16 14:05:12;;;;;;;13.15;7.15;;;;;;;;;;5016972;28;20033;-79
2021/07/16 14:07:38;;;;;;;20.42;8.15;;;;;;;;;;4982879;28;20044;-80
2021/07/16 14:10:04;;;;;;;16.45;6.13;;;;;;;;;;5001686;28;20030;-80
2021/07/16 14:12:29;;;;;;;20.35;7.07;;;;;;;;;;5045244;28;20034;-79
2021/07/16 14:14:54;;;;;;;15.77;7.45;;;;;;;;;;5028721;28;20038;-79
2021/07/16 14:17:20;;;;;;;13.27;6.38;;;;;;;;;;4979881;28;20030;-79
2021/07/16 14:19:46;;;;;;;16.52;6.07;;;;;;;;;;4995739;28;20038;-79
2021/07/16 14:22:13;;;;;;;15.20;7.40;;;;;;;;;;4996213;28;20081;-78
2021/07/16 14:24:38;;;;;;;16.67;6.43;;;;;;;;;;5012205;28;20128;-79
2021/07/16 14:27:04;;;;;;;14.18;6.32;;;;;;;;;;4995942;28;20038;-79
2021/07/16 14:29:29;;;;;;;9.43;5.78;;;;;;;;;;4995559;28;20069;-79
2021/07/16 14:31:55;;;;;;;15.18;6.72;;;;;;;;;;4979373;28;20037;-78
2021/07/16 14:34:20;;;;;;;14.63;6.22;;;;;;;;;;5011837;28;20033;-78
2021/07/16 14:36:47;;;;;;;12.35;6.20;;;;;;;;;;5035667;28;20107;-79
2021/07/16 14:39:14;;;;;;;12.57;6.90;;;;;;;;;;5048160;28;20033;-79
2021/07/16 14:41:40;;;;;;;14.02;7.88;;;;;;;;;;5015100;28;20487;-79